F/V Le Natif 2 — FKVW — position and weather

sailwx.info

Track history (hours):
 
Tides and Currents Weather Stations Pressure Air Temp Water Temp Dewpoint Dewpoint Depression Visibility Wind Speed Wind Dir Waves Ship Positions

F/V Le Natif 2

Last reported at 2014-Nov-26 04:15 UTC. Time now 2014-Nov-27 19:35 UTC.
Position N 46°37' W 002°09'.

Length 16 m.

Type: Fishing. MMSI: 228131600.

Date/timePositionNaut miles runAvg speedWind from/ knotsBaromVisibWave heightAir tempDewpointWater temp
2014-Nov-26 04:15N 46°37' W 002°09'6 8.2
2014-Nov-26 03:33N 46°40' W 002°01'4 0.3
2014-Nov-25 15:30N 46°42' W 001°56'0 0.0
2014-Nov-25 04:04N 46°42' W 001°56'0 0.0
2014-Nov-25 03:32N 46°42' W 001°56'0 0.0
2014-Nov-25 02:30N 46°42' W 001°56'3 3.0
2014-Nov-25 01:33N 46°39' W 001°59'2 2.0
2014-Nov-25 00:33N 46°38' W 002°00'7 6.5
2014-Nov-24 23:33N 46°32' W 002°05'6 6.3
2014-Nov-24 22:33N 46°26' W 002°09'6 6.1
2014-Nov-24 21:32N 46°21' W 002°13'0 0.0
2014-Nov-23 11:27N 46°21' W 002°13'3 3.0
2014-Nov-23 10:33N 46°18' W 002°11'3 3.2
2014-Nov-23 09:32N 46°15' W 002°10'15 1.8
2014-Nov-23 01:33N 46°30' W 002°09'8 8.1
2014-Nov-23 00:33N 46°36' W 002°03'  
2014-Nov-20 05:33N 46°42' W 001°56'0 0.0
2014-Nov-20 04:33N 46°42' W 001°56'7 7.4
2014-Nov-20 03:33N 46°36' W 002°04'9 8.8
2014-Nov-20 02:33N 46°29' W 002°12'9 8.9
2014-Nov-20 01:33N 46°22' W 002°20'25 1.1
2014-Nov-19 03:31N 46°42' W 001°56'4 3.9
2014-Nov-19 02:33N 46°42' W 002°02'8 8.4
2014-Nov-19 01:33N 46°45' W 002°13'  
2014-Nov-16 14:18N 46°36' W 002°13'6 8.2
2014-Nov-16 13:33N 46°38' W 002°05'7 5.2
2014-Nov-16 12:17N 46°42' W 001°56'5 6.2
2014-Nov-16 11:33N 46°38' W 001°59'8 8.5
2014-Nov-16 10:33N 46°30' W 002°05'8 8.3
2014-Nov-16 09:33N 46°22' W 002°09'9 8.2
2014-Nov-16 08:29N 46°14' W 002°14'  
Track history (hours):
 
Tides and Currents Weather Stations Pressure Air Temp Water Temp Dewpoint Dewpoint Depression Visibility Wind Speed Wind Dir Waves Ship Positions

F/V Le Natif 2

Last reported at 2014-Nov-26 04:15 UTC. Time now 2014-Nov-27 19:35 UTC.
Position N 46°37' W 002°09'.

Length 16 m.

Type: Fishing. MMSI: 228131600.

Date/timePositionNaut miles runAvg speedWind from/ knotsBaromVisibWave heightAir tempDewpointWater temp
2014-Nov-26 04:15N 46°37' W 002°09'6 8.2
2014-Nov-26 03:33N 46°40' W 002°01'4 0.3
2014-Nov-25 15:30N 46°42' W 001°56'0 0.0
2014-Nov-25 04:04N 46°42' W 001°56'0 0.0
2014-Nov-25 03:32N 46°42' W 001°56'0 0.0
2014-Nov-25 02:30N 46°42' W 001°56'3 3.0
2014-Nov-25 01:33N 46°39' W 001°59'2 2.0
2014-Nov-25 00:33N 46°38' W 002°00'7 6.5
2014-Nov-24 23:33N 46°32' W 002°05'6 6.3
2014-Nov-24 22:33N 46°26' W 002°09'6 6.1
2014-Nov-24 21:32N 46°21' W 002°13'0 0.0
2014-Nov-23 11:27N 46°21' W 002°13'3 3.0
2014-Nov-23 10:33N 46°18' W 002°11'3 3.2
2014-Nov-23 09:32N 46°15' W 002°10'15 1.8
2014-Nov-23 01:33N 46°30' W 002°09'8 8.1
2014-Nov-23 00:33N 46°36' W 002°03'  
2014-Nov-20 05:33N 46°42' W 001°56'0 0.0
2014-Nov-20 04:33N 46°42' W 001°56'7 7.4
2014-Nov-20 03:33N 46°36' W 002°04'9 8.8
2014-Nov-20 02:33N 46°29' W 002°12'9 8.9
2014-Nov-20 01:33N 46°22' W 002°20'25 1.1
2014-Nov-19 03:31N 46°42' W 001°56'4 3.9
2014-Nov-19 02:33N 46°42' W 002°02'8 8.4
2014-Nov-19 01:33N 46°45' W 002°13'  
2014-Nov-16 14:18N 46°36' W 002°13'6 8.2
2014-Nov-16 13:33N 46°38' W 002°05'7 5.2
2014-Nov-16 12:17N 46°42' W 001°56'5 6.2
2014-Nov-16 11:33N 46°38' W 001°59'8 8.5
2014-Nov-16 10:33N 46°30' W 002°05'8 8.3
2014-Nov-16 09:33N 46°22' W 002°09'9 8.2
2014-Nov-16 08:29N 46°14' W 002°14'  

Dump ship's entire track history